PST,Max TemperatureF,Mean TemperatureF,Min TemperatureF,Max Dew PointF,MeanDew PointF,Min DewpointF,Max Humidity, Mean Humidity, Min Humidity, Max Sea Level PressureIn, Mean Sea Level PressureIn, Min Sea Level PressureIn, Max VisibilityMiles, Mean VisibilityMiles, Min VisibilityMiles, Max Wind SpeedMPH, Mean Wind SpeedMPH, Max Gust SpeedMPH,PrecipitationIn, CloudCover, Events, WindDirDegrees
2014-1-1,44,41,38,43,40,39,100,99,87,30.44,30.39,30.29,15,4,0,7,5,,0.00,7,Fog-Rain,20
2014-1-2,46,44,41,,,,,,,30.27,30.03,29.84,15,7,2,17,7,20,0.59,8,Rain,351
2014-1-3,42,36,30,,,,,,,30.39,30.19,29.95,20,15,1,18,12,17,0.00,4,Fog-Rain,194
2014-1-4,39,33,27,,,,,,,30.51,30.47,30.40,15,9,0,15,4,,0.00,1,Fog,34
2014-1-5,42,34,27,,,,,,,30.55,30.49,30.39,15,14,10,12,5,,0.00,3,,10
2014-1-6,40,34,28,,,,,,,30.37,30.23,30.14,15,14,10,12,5,,0.00,4,,7
2014-1-7,39,34,30,,,,,,,30.16,30.06,30.00,20,12,3,8,5,,0.24,8,Rain,23
2014-1-8,46,40,34,,,,,,,30.02,29.81,29.62,15,9,3,25,6,38,0.35,8,Rain,44
2014-1-9,46,40,37,,,,,,,29.96,29.82,29.70,20,11,2,23,12,30,0.31,8,Rain,168
2014-1-10,47,42,37,,,,,,,30.03,29.85,29.47,20,11,3,20,14,28,0.47,8,Rain,191
2014-1-11,51,45,39,,,,,,,29.66,29.36,29.21,20,10,3,26,17,43,0.63,8,Rain,186
2014-1-12,50,44,39,,,,,,,30.17,30.00,29.72,15,10,6,21,13,30,0.12,8,Rain,190
2014-1-13,52,46,39,,,,,,,30.57,30.39,30.19,20,15,10,26,18,37,0.01,7,Rain,192
2014-1-14,50,47,44,,,,,,,30.67,30.62,30.58,20,13,10,12,7,,0.00,7,,231
2014-1-15,49,43,37,45,39,27,100,90,72,30.63,30.51,29.39,20,11,0,12,4,18,0.00,5,Fog-Rain,2
2014-1-16,49,40,30,40,36,30,100,90,64,30.54,30.48,30.41,15,9,0,7,4,,0.00,2,Fog,15
2014-1-17,48,37,26,40,32,27,100,95,71,30.40,30.30,30.20,15,5,0,7,2,,0.00,4,Fog,318
2014-1-18,39,32,26,39,34,27,100,99,93,30.29,30.24,30.19,10,2,0,9,3,,0.00,4,Fog,19
2014-1-19,39,35,31,37,36,36,100,96,83,30.35,30.26,30.21,4,2,0,6,3,,0.00,8,Fog,34
2014-1-20,49,39,29,36,33,30,100,87,58,30.38,30.34,30.31,15,7,0,7,4,,0.00,3,Fog,343
2014-1-21,45,37,29,34,32,28,93,77,54,30.34,30.30,30.25,15,13,10,8,5,,0.00,5,,9
2014-1-22,46,39,32,37,34,30,93,83,63,30.48,30.43,30.35,10,10,10,6,3,,0.00,5,Rain,19
2014-1-23,48,36,25,41,32,25,100,96,76,30.50,30.47,30.43,10,4,0,7,3,,0.00,2,Fog,205
2014-1-24,55,41,27,39,33,28,100,79,43,30.47,30.39,30.32,15,11,7,7,3,,0.00,1,Fog,355
2014-1-25,53,41,29,40,34,30,100,84,55,30.40,30.35,30.31,15,12,10,6,3,,0.00,0,Fog,319
2014-1-26,49,38,27,39,32,28,100,90,59,30.30,30.20,30.12,15,7,0,7,3,,0.00,2,Fog,356
2014-1-27,48,36,25,36,31,25,100,81,55,30.24,30.19,30.14,15,11,6,9,3,,0.00,6,,298
2014-1-28,41,38,34,41,37,32,100,91,81,30.25,30.18,29.98,15,7,1,7,3,,0.08,8,Rain,18
2014-1-29,43,41,39,43,40,37,100,95,86,29.94,29.76,29.68,15,8,2,10,4,,0.16,8,Rain,123
2014-1-30,41,38,35,41,34,21,100,85,41,29.96,29.85,29.79,20,8,2,16,6,22,0.16,8,Rain-Snow,74
2014-1-31,41,34,26,21,20,18,74,54,34,30.19,30.10,29.98,15,11,10,13,7,20,0.00,2,,63